Time;durP1;ratioP1;P1;durP2;ratioP2;P2;SDS_P1;SDS_P2;PMS_P1;PMS_P2;Temp;Humidity;BMP_temperature;BMP_pressure;BME280_temperature;BME280_humidity;BME280_pressure;Samples;Min_cycle;Max_cycle;Signal;HPM_P1;HPM_P2
2023/06/14 00:00:53;;;;;;;5.28;4.85;;;27.60;31.80;28.20;100534.00;;;;5049421;28;20272;-48
2023/06/14 00:03:19;;;;;;;6.13;5.05;;;27.60;31.70;28.10;100537.00;;;;5050795;28;20167;-47
2023/06/14 00:05:46;;;;;;;5.35;4.85;;;27.50;31.60;28.10;100543.00;;;;5049491;28;20695;-46
2023/06/14 00:08:12;;;;;;;4.95;4.55;;;27.50;31.80;28.10;100542.00;;;;5050388;28;20261;-47
2023/06/14 00:10:38;;;;;;;5.40;4.90;;;27.50;31.90;28.10;100548.00;;;;5050026;28;20171;-46
2023/06/14 00:13:04;;;;;;;5.40;5.00;;;27.40;31.70;28.00;100545.00;;;;5050532;28;20223;-49
2023/06/14 00:15:31;;;;;;;5.15;4.68;;;27.40;31.80;28.00;100542.00;;;;5049269;28;20268;-48
2023/06/14 00:18:00;;;;;;;6.20;5.20;;;27.40;32.00;28.00;100556.00;;;;5049129;28;20173;-50
2023/06/14 00:20:27;;;;;;;5.18;4.78;;;27.40;32.00;28.00;100555.00;;;;5049876;28;20231;-46
2023/06/14 00:22:54;;;;;;;5.50;5.00;;;27.40;31.90;28.00;100554.00;;;;5049627;28;20590;-48
2023/06/14 00:25:22;;;;;;;5.28;4.88;;;27.40;31.90;27.90;100561.00;;;;5049193;28;20201;-46
2023/06/14 00:27:48;;;;;;;4.75;4.45;;;27.30;31.90;27.90;100560.00;;;;5032554;28;20261;-48
2023/06/14 00:30:14;;;;;;;5.07;4.65;;;27.30;31.80;27.90;100565.00;;;;5027595;28;20586;-48
2023/06/14 00:32:40;;;;;;;5.00;4.65;;;27.30;31.60;27.70;100565.00;;;;5030393;28;20190;-48
2023/06/14 00:35:07;;;;;;;5.43;4.93;;;27.30;31.60;27.80;100573.00;;;;5028024;28;20285;-47
2023/06/14 00:37:33;;;;;;;5.40;4.90;;;27.30;31.50;27.80;100577.00;;;;5029130;28;20249;-47
2023/06/14 00:39:59;;;;;;;5.10;4.70;;;27.30;31.70;27.70;100575.00;;;;5029656;28;20625;-49
2023/06/14 00:42:28;;;;;;;5.70;4.88;;;27.20;31.60;27.70;100581.00;;;;5029142;28;20206;-47
2023/06/14 00:44:54;;;;;;;5.40;4.90;;;27.20;31.70;27.70;100573.00;;;;5029254;28;20244;-48
2023/06/14 00:47:20;;;;;;;5.15;4.75;;;27.20;32.00;27.60;100579.00;;;;5028943;28;20683;-46
2023/06/14 00:49:52;;;;;;;5.50;5.00;;;27.10;32.00;27.60;100567.00;;;;5029503;28;20181;-47
2023/06/14 00:52:18;;;;;;;5.45;4.90;;;27.10;32.20;27.60;100566.00;;;;5012664;28;20202;-47
2023/06/14 00:54:44;;;;;;;5.10;4.63;;;27.10;32.30;27.60;100570.00;;;;5011206;28;20284;-47
2023/06/14 00:57:11;;;;;;;5.57;5.05;;;27.10;32.10;27.50;100568.00;;;;5030285;28;20766;-47
2023/06/14 00:59:44;;;;;;;5.78;4.97;;;27.10;32.10;27.50;100582.00;;;;5029410;28;20190;-47
2023/06/14 01:02:11;;;;;;;4.90;4.50;;;27.10;31.90;27.50;100576.00;;;;5028018;28;20253;-49
2023/06/14 01:04:37;;;;;;;5.07;4.68;;;27.00;31.80;27.50;100579.00;;;;5029020;28;20297;-47
2023/06/14 01:07:29;;;;;;;5.43;4.93;;;27.00;31.70;27.40;100576.00;;;;5011923;28;20856;-49
2023/06/14 01:09:58;;;;;;;5.57;4.80;;;27.00;31.50;27.40;100573.00;;;;5013289;28;20228;-46
2023/06/14 01:12:56;;;;;;;5.45;5.05;;;27.00;31.50;27.40;100582.00;;;;5029102;28;20533;-50
2023/06/14 01:15:22;;;;;;;5.20;4.70;;;26.90;31.50;27.30;100580.00;;;;5013652;28;20207;-48
2023/06/14 01:17:51;;;;;;;6.05;4.80;;;26.90;31.60;27.30;100594.00;;;;5028073;28;20565;-49
2023/06/14 01:20:19;;;;;;;5.47;4.97;;;26.90;31.60;27.30;100579.00;;;;5027983;28;20727;-48
2023/06/14 01:22:54;;;;;;;5.55;5.05;;;26.90;31.60;27.20;100588.00;;;;5028237;28;20206;-49
2023/06/14 01:25:23;;;;;;;4.78;4.35;;;26.80;31.60;27.20;100586.00;;;;5028229;28;20183;-47
2023/06/14 01:28:10;;;;;;;5.13;4.72;;;26.80;31.60;27.20;100590.00;;;;5029455;28;20254;-47
2023/06/14 01:30:37;;;;;;;5.10;4.70;;;26.80;31.60;27.20;100580.00;;;;5028926;28;20267;-50
2023/06/14 01:33:03;;;;;;;6.53;4.78;;;26.80;31.80;27.10;100576.00;;;;5012154;28;20171;-46
2023/06/14 01:35:29;;;;;;;4.90;4.50;;;26.80;31.70;27.10;100574.00;;;;5013416;28;20613;-48
2023/06/14 01:37:54;;;;;;;5.32;4.82;;;26.70;31.60;27.10;100586.00;;;;5041278;28;20257;-46
2023/06/14 01:40:20;;;;;;;4.80;4.40;;;26.70;31.50;27.10;100572.00;;;;5020469;28;20171;-48
2023/06/14 01:42:47;;;;;;;5.22;4.75;;;26.70;31.60;27.00;100577.00;;;;5015892;28;20202;-48
2023/06/14 01:45:13;;;;;;;4.57;4.25;;;26.70;31.50;27.00;100575.00;;;;5031321;28;20214;-47
2023/06/14 01:47:39;;;;;;;5.43;4.50;;;26.60;31.50;27.00;100575.00;;;;5015270;28;20648;-46
2023/06/14 01:50:05;;;;;;;4.50;4.10;;;26.60;31.40;27.00;100574.00;;;;5031235;28;20312;-45
2023/06/14 01:52:31;;;;;;;4.90;4.50;;;26.60;31.40;26.90;100586.00;;;;5038709;28;20305;-46
2023/06/14 01:54:57;;;;;;;5.07;4.68;;;26.60;31.50;26.90;100580.00;;;;5035864;28;20256;-47
2023/06/14 01:57:24;;;;;;;4.93;4.50;;;26.60;31.50;26.90;100574.00;;;;5032778;28;20182;-48
2023/06/14 01:59:50;;;;;;;6.32;4.55;;;26.50;31.40;26.90;100583.00;;;;5031675;28;20171;-49
2023/06/14 02:02:16;;;;;;;4.20;3.85;;;26.50;31.40;26.80;100579.00;;;;5032114;28;20199;-46
2023/06/14 02:04:42;;;;;;;4.30;4.00;;;26.50;31.40;26.80;100579.00;;;;5031564;28;20269;-46
2023/06/14 02:07:08;;;;;;;5.53;4.32;;;26.40;31.20;26.80;100586.00;;;;5032658;28;20171;-45
2023/06/14 02:09:34;;;;;;;4.88;4.47;;;26.40;31.20;26.70;100582.00;;;;5032570;28;20175;-46
2023/06/14 02:12:01;;;;;;;4.70;4.18;;;26.40;31.20;26.70;100580.00;;;;5032404;28;20232;-50
2023/06/14 02:14:26;;;;;;;8.43;4.32;;;26.40;31.30;26.70;100586.00;;;;5031897;28;20175;-48
2023/06/14 02:16:53;;;;;;;6.28;4.30;;;26.30;31.30;26.70;100580.00;;;;5032564;28;20201;-48
2023/06/14 02:19:19;;;;;;;4.60;4.20;;;26.30;31.30;26.70;100593.00;;;;5032083;28;20213;-48
2023/06/14 02:21:45;;;;;;;5.32;4.30;;;26.30;31.40;26.60;100592.00;;;;5032318;28;20242;-47
2023/06/14 02:24:11;;;;;;;4.78;4.32;;;26.30;31.40;26.60;100593.00;;;;5032671;28;20276;-47
2023/06/14 02:26:41;;;;;;;4.70;4.30;;;26.30;31.40;26.50;100589.00;;;;5031836;28;20218;-47
2023/06/14 02:29:09;;;;;;;4.35;4.00;;;26.30;31.40;26.50;100588.00;;;;5032066;28;20163;-48
2023/06/14 02:31:35;;;;;;;4.45;4.05;;;26.20;31.40;26.50;100581.00;;;;5031825;28;20179;-48
2023/06/14 02:34:01;;;;;;;4.68;4.20;;;26.20;31.60;26.50;100568.00;;;;5032136;28;20209;-47
2023/06/14 02:36:27;;;;;;;4.53;3.97;;;26.20;31.50;26.50;100587.00;;;;5031498;28;20237;-49
2023/06/14 02:38:54;;;;;;;5.60;3.95;;;26.20;31.70;26.50;100579.00;;;;5031882;28;20205;-48
2023/06/14 02:41:19;;;;;;;6.07;4.15;;;26.20;31.60;26.40;100581.00;;;;5031524;28;20208;-46
2023/06/14 02:43:45;;;;;;;4.90;4.25;;;26.20;31.50;26.40;100594.00;;;;5032214;28;20167;-46
2023/06/14 02:46:11;;;;;;;4.75;4.35;;;26.20;31.60;26.40;100583.00;;;;5030879;28;20209;-49
2023/06/14 02:48:37;;;;;;;4.00;3.63;;;26.10;31.60;26.40;100593.00;;;;5031592;28;20270;-46
2023/06/14 02:51:02;;;;;;;4.75;4.10;;;26.10;31.50;26.30;100590.00;;;;5031312;28;20660;-46
2023/06/14 02:53:28;;;;;;;5.90;4.10;;;26.10;31.50;26.30;100597.00;;;;5031031;28;20232;-48
2023/06/14 02:55:55;;;;;;;4.57;4.18;;;26.10;31.60;26.30;100599.00;;;;5031240;28;20551;-46
2023/06/14 02:58:21;;;;;;;4.20;3.90;;;26.00;31.50;26.20;100609.00;;;;5031762;28;20790;-46
2023/06/14 03:00:47;;;;;;;4.47;4.00;;;26.00;31.60;26.20;100601.00;;;;5030845;28;20182;-48
2023/06/14 03:03:16;;;;;;;4.40;4.03;;;26.00;31.60;26.20;100606.00;;;;5031518;28;20205;-47
2023/06/14 03:05:47;;;;;;;4.85;4.35;;;26.00;31.60;26.20;100609.00;;;;5030621;28;20202;-47
2023/06/14 03:08:19;;;;;;;4.35;3.95;;;25.90;31.60;26.10;100614.00;;;;5031644;28;20171;-48
2023/06/14 03:10:45;;;;;;;4.32;3.92;;;25.90;31.60;26.10;100623.00;;;;5031371;28;20152;-46
2023/06/14 03:13:11;;;;;;;4.70;4.20;;;25.90;31.80;26.10;100624.00;;;;5031523;28;20194;-48
2023/06/14 03:15:38;;;;;;;5.05;4.45;;;26.00;32.50;26.10;100631.00;;;;5030614;28;20722;-50
2023/06/14 03:18:04;;;;;;;5.28;4.70;;;25.90;33.00;26.10;100631.00;;;;5031763;28;20269;-47
2023/06/14 03:20:32;;;;;;;4.60;4.22;;;25.90;33.30;26.10;100629.00;;;;5031120;28;20266;-47
2023/06/14 03:23:00;;;;;;;5.00;4.60;;;25.90;33.70;26.00;100640.00;;;;5031570;28;20183;-46
2023/06/14 03:25:29;;;;;;;6.28;4.63;;;25.90;33.70;26.00;100631.00;;;;5030698;28;20202;-47
2023/06/14 03:27:55;;;;;;;4.82;4.43;;;25.90;33.80;26.00;100632.00;;;;5030908;28;20808;-44
2023/06/14 03:30:21;;;;;;;4.70;4.20;;;25.90;34.00;26.00;100629.00;;;;5030578;28;20166;-47
2023/06/14 03:32:47;;;;;;;4.70;4.30;;;25.80;33.90;26.00;100630.00;;;;5027146;28;20207;-47
2023/06/14 03:35:17;;;;;;;4.63;4.30;;;25.80;33.90;26.00;100641.00;;;;5028912;28;20199;-47
2023/06/14 03:37:50;;;;;;;5.07;4.57;;;25.80;34.10;26.00;100640.00;;;;4998088;28;20691;-47
2023/06/14 03:40:18;;;;;;;5.07;4.68;;;25.80;34.20;26.00;100640.00;;;;5006571;28;20171;-46
2023/06/14 03:42:44;;;;;;;4.68;4.28;;;25.80;34.20;26.00;100643.00;;;;5034438;28;20211;-46
2023/06/14 03:45:09;;;;;;;5.50;4.20;;;25.80;34.10;26.00;100655.00;;;;5030927;28;20283;-46
2023/06/14 03:47:35;;;;;;;4.57;4.18;;;25.90;34.40;25.90;100646.00;;;;5030310;28;20179;-47
2023/06/14 03:50:03;;;;;;;4.55;4.15;;;25.90;34.50;25.90;100651.00;;;;5030465;28;20703;-46
2023/06/14 03:52:29;;;;;;;4.82;3.88;;;25.80;34.40;25.90;100650.00;;;;5030859;28;20195;-46
2023/06/14 03:54:55;;;;;;;4.68;4.20;;;25.80;34.60;25.90;100650.00;;;;5036170;28;20203;-47
2023/06/14 03:57:21;;;;;;;4.50;4.10;;;25.70;34.70;25.90;100650.00;;;;5031591;28;20270;-44
2023/06/14 03:59:47;;;;;;;5.43;3.88;;;25.70;34.80;25.90;100650.00;;;;5029683;28;20187;-46
2023/06/14 04:02:15;;;;;;;4.88;4.47;;;25.70;34.80;25.90;100659.00;;;;5029625;28;20214;-49
2023/06/14 04:04:44;;;;;;;4.20;3.80;;;25.70;35.00;25.80;100658.00;;;;5029214;28;20206;-46
2023/06/14 04:07:11;;;;;;;4.50;4.10;;;25.70;35.00;25.80;100669.00;;;;5030314;28;20194;-47
2023/06/14 04:09:37;;;;;;;5.65;4.30;;;25.70;35.10;25.80;100655.00;;;;5030175;28;20227;-48
2023/06/14 04:12:05;;;;;;;4.50;4.10;;;25.70;35.20;25.80;100660.00;;;;5029968;28;20241;-45
2023/06/14 04:14:32;;;;;;;4.75;4.00;;;25.70;35.40;25.60;100671.00;;;;5029110;28;20210;-48
2023/06/14 04:16:58;;;;;;;5.40;4.10;;;25.70;35.50;25.80;100667.00;;;;5030049;28;20206;-47
2023/06/14 04:19:24;;;;;;;4.30;3.90;;;25.60;35.60;25.70;100680.00;;;;5029524;28;20229;-45
2023/06/14 04:21:50;;;;;;;5.45;4.25;;;25.60;35.60;25.70;100677.00;;;;5013468;28;20206;-46
2023/06/14 04:24:16;;;;;;;4.82;4.18;;;25.60;35.80;25.70;100680.00;;;;5025291;28;20178;-45
2023/06/14 04:26:44;;;;;;;6.03;4.18;;;25.60;35.80;25.70;100678.00;;;;5031527;28;20295;-45
2023/06/14 04:29:14;;;;;;;5.45;4.03;;;25.60;36.20;25.70;100685.00;;;;5021007;28;20202;-48
2023/06/14 04:31:40;;;;;;;4.88;4.47;;;25.50;35.90;25.60;100691.00;;;;5029271;28;20181;-46
2023/06/14 04:34:06;;;;;;;4.80;4.15;;;25.50;36.50;25.60;100697.00;;;;5029113;28;20171;-46
2023/06/14 04:36:41;;;;;;;4.57;4.18;;;25.50;36.40;25.60;100696.00;;;;5028882;28;20210;-45
2023/06/14 04:39:07;;;;;;;4.30;4.00;;;25.50;36.50;25.60;100691.00;;;;5029576;28;20178;-46
2023/06/14 04:41:34;;;;;;;4.85;4.00;;;25.50;36.50;25.60;100699.00;;;;5029200;28;20235;-47
2023/06/14 04:44:01;;;;;;;4.75;4.07;;;25.50;36.50;25.50;100705.00;;;;5028806;28;20174;-46
2023/06/14 04:46:28;;;;;;;4.32;3.92;;;25.50;36.50;25.50;100711.00;;;;5028209;28;20286;-47
2023/06/14 04:48:54;;;;;;;4.90;4.40;;;25.50;36.70;25.50;100711.00;;;;5028902;28;20563;-47
2023/06/14 04:51:22;;;;;;;4.50;4.10;;;25.40;36.80;25.50;100711.00;;;;5028560;28;20171;-45
2023/06/14 04:53:49;;;;;;;6.13;4.00;;;25.40;36.40;25.50;100709.00;;;;5029012;28;20194;-45
2023/06/14 04:56:15;;;;;;;4.18;3.80;;;25.40;36.40;25.50;100710.00;;;;5027924;28;20555;-51
2023/06/14 04:58:41;;;;;;;5.40;4.10;;;25.30;36.40;25.50;100715.00;;;;5028995;28;20229;-46
2023/06/14 05:01:09;;;;;;;4.38;3.90;;;25.40;36.40;25.50;100715.00;;;;5027859;28;20233;-46
2023/06/14 05:03:34;;;;;;;4.60;4.20;;;25.40;36.50;25.50;100717.00;;;;5027988;28;20827;-46
2023/06/14 05:06:00;;;;;;;4.65;4.25;;;25.30;36.70;25.50;100715.00;;;;5028230;28;20195;-47
2023/06/14 05:08:26;;;;;;;4.15;3.83;;;25.40;36.90;25.50;100707.00;;;;5027525;28;20254;-46
2023/06/14 05:10:52;;;;;;;4.90;4.13;;;25.40;36.80;25.50;100711.00;;;;5028663;28;20178;-46
2023/06/14 05:13:18;;;;;;;4.30;3.90;;;25.40;37.30;25.50;100710.00;;;;5028200;28;20175;-48
2023/06/14 05:15:44;;;;;;;4.88;4.40;;;25.40;37.30;25.50;100719.00;;;;5028330;28;20214;-48
2023/06/14 05:18:10;;;;;;;4.50;4.10;;;25.40;37.30;25.40;100704.00;;;;5028794;28;20175;-48
2023/06/14 05:20:37;;;;;;;4.90;4.20;;;25.40;37.30;25.40;100714.00;;;;5026969;28;20213;-48
2023/06/14 05:23:02;;;;;;;4.97;4.47;;;25.30;37.30;25.40;100722.00;;;;5028599;28;20242;-48
2023/06/14 05:25:28;;;;;;;4.80;4.40;;;25.40;37.40;25.40;100709.00;;;;5028013;28;20234;-48
2023/06/14 05:27:54;;;;;;;4.40;4.00;;;25.30;37.50;25.40;100712.00;;;;5027571;28;20285;-47
2023/06/14 05:30:20;;;;;;;4.55;4.15;;;25.30;37.50;25.40;100718.00;;;;4994915;28;20232;-48
2023/06/14 05:32:46;;;;;;;4.50;4.10;;;25.30;37.40;25.40;100717.00;;;;5028306;28;20206;-48
2023/06/14 05:35:11;;;;;;;5.07;4.38;;;25.30;37.30;25.40;100718.00;;;;5027232;28;20197;-49
2023/06/14 05:37:37;;;;;;;4.25;3.95;;;25.30;37.70;25.40;100718.00;;;;5024515;28;20174;-48
2023/06/14 05:40:05;;;;;;;4.63;4.10;;;25.30;37.60;25.30;100725.00;;;;5043286;28;20233;-48
2023/06/14 05:42:32;;;;;;;4.57;4.10;;;25.20;37.70;25.30;100731.00;;;;5034925;28;20666;-47
2023/06/14 05:44:58;;;;;;;5.13;4.57;;;25.20;37.80;25.30;100728.00;;;;5028778;28;20261;-48
2023/06/14 05:47:23;;;;;;;4.03;3.72;;;25.20;37.60;25.30;100725.00;;;;5027118;28;20183;-50
2023/06/14 05:49:49;;;;;;;4.00;3.70;;;25.20;37.40;25.30;100725.00;;;;5028633;28;20256;-49
2023/06/14 05:52:15;;;;;;;4.30;4.00;;;25.10;37.50;25.30;100728.00;;;;5027470;28;20665;-47
2023/06/14 05:54:41;;;;;;;6.00;4.13;;;25.10;37.50;25.30;100724.00;;;;5038182;28;20193;-47
2023/06/14 05:57:07;;;;;;;4.78;4.10;;;25.10;37.30;25.30;100744.00;;;;5034259;28;20167;-47
2023/06/14 05:59:34;;;;;;;4.18;3.80;;;25.10;37.30;25.30;100731.00;;;;5027784;28;20241;-47
2023/06/14 06:01:59;;;;;;;6.22;4.05;;;25.10;37.30;25.30;100739.00;;;;5028334;28;20676;-48
2023/06/14 06:04:25;;;;;;;4.70;3.92;;;25.10;37.50;25.30;100738.00;;;;5028093;28;20175;-46
2023/06/14 06:06:51;;;;;;;4.13;3.80;;;25.10;37.20;25.30;100745.00;;;;5027571;28;20187;-47
2023/06/14 06:09:17;;;;;;;4.25;3.83;;;25.10;37.30;25.30;100743.00;;;;5028654;28;20186;-46
2023/06/14 06:11:42;;;;;;;3.90;3.50;;;25.10;37.40;25.30;100744.00;;;;5026562;28;20649;-47
2023/06/14 06:14:08;;;;;;;5.90;3.88;;;25.10;37.40;25.30;100741.00;;;;5027848;28;20263;-50
2023/06/14 06:16:34;;;;;;;4.32;3.53;;;25.10;37.10;25.20;100748.00;;;;5027442;28;20305;-47
2023/06/14 06:19:00;;;;;;;4.10;3.70;;;25.10;37.40;25.20;100747.00;;;;5028493;28;20649;-48
2023/06/14 06:21:26;;;;;;;5.55;3.63;;;25.00;37.30;25.20;100743.00;;;;5029892;28;20206;-48
2023/06/14 06:23:51;;;;;;;3.90;3.58;;;25.10;37.30;25.20;100742.00;;;;5030166;28;20163;-48
2023/06/14 06:26:17;;;;;;;5.90;3.40;;;25.00;37.20;25.20;100745.00;;;;5030915;28;20582;-48
2023/06/14 06:28:43;;;;;;;3.60;3.30;;;25.00;37.40;25.20;100739.00;;;;5031997;28;20624;-47
2023/06/14 06:31:09;;;;;;;5.22;3.28;;;25.00;37.40;25.20;100726.00;;;;5031173;28;20175;-49
2023/06/14 06:33:35;;;;;;;3.70;3.40;;;25.00;37.20;25.20;100743.00;;;;5031602;28;20648;-47
2023/06/14 06:36:01;;;;;;;3.95;3.40;;;25.00;37.10;25.20;100757.00;;;;5031286;28;20201;-48
2023/06/14 06:38:26;;;;;;;3.60;3.30;;;25.00;37.40;25.20;100746.00;;;;5031991;28;20168;-50
2023/06/14 06:40:54;;;;;;;3.72;3.00;;;25.00;37.30;25.20;100758.00;;;;5031320;28;20182;-48
2023/06/14 06:43:19;;;;;;;3.40;3.10;;;25.00;37.20;25.20;100761.00;;;;5031663;28;20179;-47
2023/06/14 06:45:45;;;;;;;3.03;2.83;;;25.00;37.30;25.10;100761.00;;;;5031176;28;20202;-48
2023/06/14 06:48:11;;;;;;;4.03;3.03;;;25.00;37.40;25.10;100761.00;;;;5030978;28;20175;-48
2023/06/14 06:50:37;;;;;;;3.40;3.10;;;25.00;37.20;25.10;100769.00;;;;5031365;28;20506;-48
2023/06/14 06:53:03;;;;;;;3.88;2.90;;;24.90;37.10;25.10;100767.00;;;;5031204;28;20171;-47
2023/06/14 06:55:28;;;;;;;3.15;2.85;;;25.00;37.30;25.10;100771.00;;;;5030935;28;20230;-47
2023/06/14 06:57:54;;;;;;;3.43;3.13;;;25.00;37.10;25.10;100783.00;;;;5031555;28;20241;-48
2023/06/14 07:00:21;;;;;;;3.03;2.75;;;24.90;37.10;25.10;100781.00;;;;5029994;28;20175;-45
2023/06/14 07:02:46;;;;;;;3.42;2.97;;;24.90;36.90;25.10;100783.00;;;;5045971;28;20689;-47
2023/06/14 07:05:12;;;;;;;3.20;2.90;;;24.90;36.80;25.10;100779.00;;;;5030772;28;20217;-45
2023/06/14 07:07:38;;;;;;;3.00;2.70;;;24.90;36.90;25.10;100789.00;;;;5030351;28;20202;-48
2023/06/14 07:10:05;;;;;;;3.08;2.80;;;24.90;36.70;25.00;100796.00;;;;5031081;28;20599;-46
2023/06/14 07:12:33;;;;;;;4.03;2.70;;;24.90;36.80;25.00;100792.00;;;;5029086;28;20270;-48
2023/06/14 07:14:59;;;;;;;3.10;2.80;;;24.90;36.60;25.00;100798.00;;;;5027788;28;20766;-49
2023/06/14 07:17:25;;;;;;;2.90;2.70;;;24.90;36.10;25.00;100792.00;;;;5029985;28;20190;-49
2023/06/14 07:19:51;;;;;;;3.77;2.70;;;24.80;35.60;25.00;100781.00;;;;5022573;28;20473;-49
2023/06/14 07:22:17;;;;;;;2.55;2.35;;;24.80;35.50;25.00;100783.00;;;;5021625;28;20199;-46
2023/06/14 07:24:43;;;;;;;3.00;2.70;;;24.80;35.40;25.00;100791.00;;;;5028325;28;20187;-45
2023/06/14 07:27:09;;;;;;;2.70;2.50;;;24.80;35.80;24.90;100793.00;;;;5029834;28;20551;-46
2023/06/14 07:29:35;;;;;;;2.77;2.30;;;24.80;36.00;24.90;100793.00;;;;5029384;28;20170;-46
2023/06/14 07:32:00;;;;;;;2.63;2.43;;;24.80;35.80;24.90;100788.00;;;;5029411;28;20596;-44
2023/06/14 07:34:27;;;;;;;2.70;2.50;;;24.80;35.80;24.90;100786.00;;;;5029174;28;20175;-45
2023/06/14 07:36:54;;;;;;;2.80;2.60;;;24.80;35.40;24.90;100788.00;;;;5029775;28;20608;-45
2023/06/14 07:39:19;;;;;;;2.85;2.53;;;24.80;35.70;24.90;100789.00;;;;5030983;28;20198;-48
2023/06/14 07:41:45;;;;;;;2.63;2.30;;;24.80;35.70;24.90;100796.00;;;;5032301;28;20220;-47
2023/06/14 07:44:12;;;;;;;2.80;2.50;;;24.80;35.50;24.90;100787.00;;;;5044076;28;20171;-47
2023/06/14 07:46:38;;;;;;;3.77;2.43;;;24.80;35.80;24.90;100781.00;;;;5033535;28;20278;-46
2023/06/14 07:49:04;;;;;;;2.50;2.30;;;24.80;35.50;24.90;100787.00;;;;5031244;28;20823;-46
2023/06/14 07:51:29;;;;;;;2.60;2.40;;;24.80;35.60;24.90;100786.00;;;;5035275;28;20313;-46
2023/06/14 07:53:56;;;;;;;2.60;2.40;;;24.80;35.80;24.90;100787.00;;;;5030254;28;20545;-48
2023/06/14 07:56:23;;;;;;;3.13;2.37;;;24.70;35.10;24.90;100792.00;;;;5028937;28;20251;-46
2023/06/14 07:58:48;;;;;;;2.40;2.27;;;24.70;33.80;24.90;100788.00;;;;5042375;28;20185;-47
2023/06/14 08:01:15;;;;;;;2.23;2.10;;;24.70;33.60;24.80;100792.00;;;;5034955;28;20195;-49
2023/06/14 08:03:40;;;;;;;2.63;2.43;;;24.70;34.20;24.80;100796.00;;;;5029597;28;20294;-47
2023/06/14 08:06:06;;;;;;;2.60;2.40;;;24.70;34.40;24.80;100790.00;;;;5028867;28;20227;-46
2023/06/14 08:08:32;;;;;;;2.50;2.30;;;24.70;34.30;24.80;100793.00;;;;5027637;28;20573;-47
2023/06/14 08:10:58;;;;;;;2.63;2.42;;;24.70;34.30;24.80;100786.00;;;;5028367;28;20174;-50
2023/06/14 08:13:24;;;;;;;2.47;2.27;;;24.70;34.70;24.80;100783.00;;;;5035586;28;20186;-47
2023/06/14 08:15:49;;;;;;;2.43;2.23;;;24.70;34.70;24.80;100791.00;;;;5034837;28;20190;-46
2023/06/14 08:18:15;;;;;;;3.60;2.60;;;24.70;34.40;24.80;100792.00;;;;5032737;28;20179;-48
2023/06/14 08:20:41;;;;;;;2.83;2.57;;;24.70;33.60;24.80;100795.00;;;;5028776;28;20175;-46
2023/06/14 08:23:07;;;;;;;2.35;2.22;;;24.70;33.80;24.80;100785.00;;;;5029775;28;20551;-47
2023/06/14 08:25:33;;;;;;;2.57;2.37;;;24.70;33.60;24.80;100793.00;;;;5025553;28;20293;-47
2023/06/14 08:28:00;;;;;;;2.53;2.33;;;24.60;33.90;24.80;100787.00;;;;5029334;28;20174;-49
2023/06/14 08:30:25;;;;;;;2.40;2.20;;;24.70;33.60;24.80;100787.00;;;;5029161;28;20221;-47
2023/06/14 08:32:51;;;;;;;2.50;2.30;;;24.70;34.00;24.70;100783.00;;;;5029149;28;20194;-48
2023/06/14 08:35:18;;;;;;;2.55;2.35;;;24.70;34.10;24.80;100793.00;;;;5029023;28;20205;-47
2023/06/14 08:37:43;;;;;;;2.60;2.40;;;24.60;33.80;24.80;100788.00;;;;5029572;28;20183;-47
2023/06/14 08:40:22;;;;;;;2.50;2.30;;;24.60;34.20;24.80;100795.00;;;;5029059;28;20171;-45
2023/06/14 08:42:52;;;;;;;2.60;2.40;;;24.60;34.20;24.80;100791.00;;;;5027581;28;20203;-46
2023/06/14 08:45:23;;;;;;;2.37;2.17;;;24.60;34.20;24.80;100789.00;;;;5026224;28;20202;-45
2023/06/14 08:47:51;;;;;;;2.47;2.27;;;24.60;34.30;24.80;100784.00;;;;5028895;28;20298;-46
2023/06/14 08:50:22;;;;;;;2.60;2.40;;;24.60;34.70;24.80;100792.00;;;;5026256;28;20175;-50
2023/06/14 08:52:50;;;;;;;2.63;2.30;;;24.50;34.50;24.90;100792.00;;;;5023969;28;20195;-50
2023/06/14 08:55:17;;;;;;;2.40;2.20;;;24.50;34.80;24.90;100792.00;;;;5026867;28;20199;-50
2023/06/14 08:57:43;;;;;;;2.53;2.33;;;24.60;35.00;25.00;100780.00;;;;5028567;28;20381;-50
2023/06/14 09:00:13;;;;;;;3.55;2.45;;;24.60;35.10;25.00;100789.00;;;;5026791;28;20167;-51
2023/06/14 09:02:43;;;;;;;2.80;2.60;;;24.70;35.40;25.10;100790.00;;;;5028035;28;20287;-51
2023/06/14 09:05:18;;;;;;;6.32;2.42;;;24.80;35.50;25.20;100775.00;;;;5028260;28;20226;-51
2023/06/14 09:07:44;;;;;;;5.10;2.43;;;24.80;35.80;25.20;100783.00;;;;5027392;28;20678;-50
2023/06/14 09:10:12;;;;;;;3.37;2.50;;;24.80;36.00;25.30;100779.00;;;;5026833;28;20582;-50
2023/06/14 09:12:39;;;;;;;2.90;2.60;;;24.90;36.10;25.30;100785.00;;;;5026405;28;20179;-50
2023/06/14 09:15:06;;;;;;;3.88;2.42;;;24.90;36.10;25.40;100782.00;;;;5027042;28;20203;-50
2023/06/14 09:17:38;;;;;;;3.22;2.53;;;25.00;36.20;25.40;100783.00;;;;5028058;28;20175;-52
2023/06/14 09:20:18;;;;;;;3.07;2.50;;;25.00;36.20;25.40;100789.00;;;;5027953;28;20644;-52
2023/06/14 09:22:43;;;;;;;3.65;2.40;;;25.00;36.40;25.50;100788.00;;;;5027581;28;20217;-53
2023/06/14 09:25:09;;;;;;;3.13;2.30;;;25.00;36.40;25.50;100791.00;;;;5027412;28;20187;-54
2023/06/14 09:27:35;;;;;;;3.70;2.20;;;25.00;36.40;25.50;100789.00;;;;5021063;28;20199;-51
2023/06/14 09:30:06;;;;;;;2.53;2.30;;;25.00;36.50;25.50;100792.00;;;;5008233;28;20194;-50
2023/06/14 09:32:32;;;;;;;3.13;2.22;;;25.10;36.70;25.60;100792.00;;;;5008875;28;20565;-52
2023/06/14 09:34:58;;;;;;;2.55;2.28;;;25.00;36.60;25.60;100788.00;;;;5006709;28;20196;-51
2023/06/14 09:37:30;;;;;;;2.30;2.10;;;25.10;36.70;25.60;100795.00;;;;5006791;28;20180;-53
2023/06/14 09:39:57;;;;;;;2.60;2.25;;;25.10;36.80;25.60;100797.00;;;;5008319;28;20286;-49
2023/06/14 09:42:25;;;;;;;3.05;2.28;;;25.10;36.90;25.70;100795.00;;;;5008209;28;20616;-51
2023/06/14 09:44:52;;;;;;;2.88;2.10;;;25.10;37.00;25.70;100807.00;;;;5008177;28;20270;-52
2023/06/14 09:47:18;;;;;;;3.22;2.25;;;25.10;37.00;25.70;100806.00;;;;5007971;28;20321;-52
2023/06/14 09:49:44;;;;;;;2.92;2.47;;;25.10;37.00;25.70;100799.00;;;;5020271;28;20179;-52
2023/06/14 09:52:16;;;;;;;2.40;2.20;;;25.20;37.20;25.70;100801.00;;;;5012336;28;20171;-52
2023/06/14 09:54:43;;;;;;;2.60;2.30;;;25.20;37.30;25.70;100799.00;;;;5007870;28;20195;-51
2023/06/14 09:57:13;;;;;;;2.35;2.25;;;25.20;37.40;25.70;100799.00;;;;5011726;28;20175;-50
2023/06/14 09:59:47;;;;;;;2.65;2.45;;;25.20;37.50;25.80;100802.00;;;;5012645;28;20172;-52
2023/06/14 10:02:26;;;;;;;2.42;2.20;;;25.20;37.50;25.80;100798.00;;;;5012793;28;20412;-54
2023/06/14 10:05:08;;;;;;;2.38;2.10;;;25.20;37.60;25.70;100799.00;;;;5034881;28;20209;-51
2023/06/14 10:07:47;;;;;;;2.35;2.15;;;25.20;37.60;25.80;100801.00;;;;5035083;28;20173;-51
2023/06/14 10:10:14;;;;;;;2.35;2.13;;;25.20;37.60;25.80;100804.00;;;;5032019;28;20317;-51
2023/06/14 10:12:40;;;;;;;2.65;2.17;;;25.30;37.80;25.80;100798.00;;;;5031495;28;20171;-52
2023/06/14 10:15:26;;;;;;;2.20;2.00;;;25.30;37.90;25.80;100795.00;;;;5030350;28;20296;-51
2023/06/14 10:19:11;;;;;;;2.40;2.20;;;25.30;38.00;25.90;100798.00;;;;5030665;28;20182;-52
2023/06/14 10:22:00;;;;;;;2.58;2.38;;;25.30;38.50;25.90;100801.00;;;;4969147;28;20675;-52
2023/06/14 10:24:41;;;;;;;2.40;2.20;;;25.30;38.00;25.90;100787.00;;;;4969688;28;20299;-51
2023/06/14 10:27:10;;;;;;;2.50;2.17;;;25.30;38.10;25.90;100795.00;;;;5020503;28;20368;-52
2023/06/14 10:29:57;;;;;;;2.35;2.20;;;25.30;38.20;25.90;100791.00;;;;5031381;28;20221;-50
2023/06/14 10:32:28;;;;;;;3.75;2.20;;;25.30;38.20;25.90;100794.00;;;;5030419;28;20270;-53
2023/06/14 10:35:04;;;;;;;2.78;2.10;;;25.30;38.20;25.90;100797.00;;;;5032295;28;20309;-52
2023/06/14 10:37:30;;;;;;;2.63;2.42;;;25.40;38.40;25.90;100787.00;;;;5031770;28;20229;-50
2023/06/14 10:39:55;;;;;;;3.40;2.50;;;25.40;38.40;25.90;100790.00;;;;5031041;28;20640;-53
2023/06/14 10:42:22;;;;;;;2.20;2.00;;;25.40;38.60;26.00;100797.00;;;;5030036;28;20217;-52
2023/06/14 10:45:00;;;;;;;2.28;2.03;;;25.40;38.60;26.00;100795.00;;;;5030732;28;20174;-52
2023/06/14 10:47:35;;;;;;;3.65;2.30;;;25.40;38.60;26.00;100795.00;;;;5031232;28;20201;-58
2023/06/14 10:50:08;;;;;;;2.40;2.20;;;25.40;38.70;26.00;100785.00;;;;5031419;28;20174;-52